sensor_id;sensor_type;location;lat;lon;timestamp;pressure;altitude;pressure_sealevel;temperature;humidity
73941;BME280;62294;48.554;10.202;2023-06-10T00:00:47;92771.00;;;13.28;100.00
73941;BME280;62294;48.554;10.202;2023-06-10T00:03:14;92767.69;;;13.31;100.00
73941;BME280;62294;48.554;10.202;2023-06-10T00:05:41;92749.19;;;13.34;100.00
73941;BME280;62294;48.554;10.202;2023-06-10T00:08:07;92745.25;;;13.32;100.00
73941;BME280;62294;48.554;10.202;2023-06-10T00:10:35;92725.34;;;13.21;100.00
73941;BME280;62294;48.554;10.202;2023-06-10T00:13:03;92708.72;;;13.15;100.00
73941;BME280;62294;48.554;10.202;2023-06-10T00:15:30;92690.03;;;13.15;100.00
73941;BME280;62294;48.554;10.202;2023-06-10T00:17:57;92566.47;;;13.11;100.00
73941;BME280;62294;48.554;10.202;2023-06-10T00:20:24;92561.16;;;13.03;100.00
73941;BME280;62294;48.554;10.202;2023-06-10T00:22:51;92572.31;;;12.79;100.00
73941;BME280;62294;48.554;10.202;2023-06-10T00:25:18;92564.66;;;12.77;100.00
73941;BME280;62294;48.554;10.202;2023-06-10T00:27:45;92544.56;;;12.71;100.00
73941;BME280;62294;48.554;10.202;2023-06-10T00:30:12;92533.91;;;12.71;100.00
73941;BME280;62294;48.554;10.202;2023-06-10T00:32:39;92530.34;;;12.59;100.00
73941;BME280;62294;48.554;10.202;2023-06-10T00:35:06;92509.53;;;12.52;100.00
73941;BME280;62294;48.554;10.202;2023-06-10T00:37:34;92488.84;;;12.49;100.00
73941;BME280;62294;48.554;10.202;2023-06-10T00:40:04;92472.69;;;12.46;100.00
73941;BME280;62294;48.554;10.202;2023-06-10T00:42:31;92431.03;;;12.41;100.00
73941;BME280;62294;48.554;10.202;2023-06-10T00:44:58;92395.00;;;12.44;100.00
73941;BME280;62294;48.554;10.202;2023-06-10T00:47:25;92374.94;;;12.46;100.00
73941;BME280;62294;48.554;10.202;2023-06-10T00:49:52;92360.38;;;12.44;100.00
73941;BME280;62294;48.554;10.202;2023-06-10T00:52:19;92349.78;;;12.35;100.00
73941;BME280;62294;48.554;10.202;2023-06-10T00:54:49;92341.31;;;12.33;100.00
73941;BME280;62294;48.554;10.202;2023-06-10T00:57:16;92320.03;;;12.33;100.00
73941;BME280;62294;48.554;10.202;2023-06-10T00:59:47;92297.81;;;12.29;100.00
73941;BME280;62294;48.554;10.202;2023-06-10T01:02:14;92302.97;;;12.26;100.00
73941;BME280;62294;48.554;10.202;2023-06-10T01:04:41;92285.75;;;12.23;100.00
73941;BME280;62294;48.554;10.202;2023-06-10T01:07:28;92272.44;;;12.23;100.00
73941;BME280;62294;48.554;10.202;2023-06-10T01:10:11;92238.03;;;12.18;100.00
73941;BME280;62294;48.554;10.202;2023-06-10T01:15:09;92214.25;;;12.13;100.00
73941;BME280;62294;48.554;10.202;2023-06-10T01:17:58;92194.50;;;12.14;100.00
73941;BME280;62294;48.554;10.202;2023-06-10T01:20:26;92182.16;;;12.09;100.00
73941;BME280;62294;48.554;10.202;2023-06-10T01:22:54;92186.00;;;12.00;100.00
73941;BME280;62294;48.554;10.202;2023-06-10T01:25:22;92158.59;;;11.99;100.00
73941;BME280;62294;48.554;10.202;2023-06-10T01:28:04;92157.38;;;11.97;100.00
73941;BME280;62294;48.554;10.202;2023-06-10T01:33:28;92135.84;;;11.81;100.00
73941;BME280;62294;48.554;10.202;2023-06-10T01:35:58;92124.75;;;11.79;100.00
73941;BME280;62294;48.554;10.202;2023-06-10T01:38:26;92102.06;;;11.82;100.00
73941;BME280;62294;48.554;10.202;2023-06-10T01:40:55;92074.59;;;11.90;100.00
73941;BME280;62294;48.554;10.202;2023-06-10T01:43:21;92057.78;;;11.98;100.00
73941;BME280;62294;48.554;10.202;2023-06-10T01:45:48;92032.31;;;11.97;100.00
73941;BME280;62294;48.554;10.202;2023-06-10T01:48:15;92018.81;;;12.02;100.00
73941;BME280;62294;48.554;10.202;2023-06-10T01:50:41;92017.06;;;12.06;100.00
73941;BME280;62294;48.554;10.202;2023-06-10T01:53:10;92001.53;;;12.08;100.00
73941;BME280;62294;48.554;10.202;2023-06-10T01:55:37;92004.00;;;12.13;100.00
73941;BME280;62294;48.554;10.202;2023-06-10T01:58:03;92007.50;;;12.05;100.00
73941;BME280;62294;48.554;10.202;2023-06-10T02:00:30;92014.19;;;11.90;100.00
73941;BME280;62294;48.554;10.202;2023-06-10T02:02:57;92005.75;;;11.88;100.00
73941;BME280;62294;48.554;10.202;2023-06-10T02:05:24;92010.03;;;11.81;100.00
73941;BME280;62294;48.554;10.202;2023-06-10T02:07:51;92001.91;;;11.77;100.00
73941;BME280;62294;48.554;10.202;2023-06-10T02:10:17;92011.53;;;11.70;100.00
73941;BME280;62294;48.554;10.202;2023-06-10T02:12:44;92010.88;;;11.64;100.00
73941;BME280;62294;48.554;10.202;2023-06-10T02:15:11;91989.78;;;11.68;100.00
73941;BME280;62294;48.554;10.202;2023-06-10T02:17:37;91995.72;;;11.65;100.00
73941;BME280;62294;48.554;10.202;2023-06-10T02:20:05;91996.56;;;11.57;100.00
73941;BME280;62294;48.554;10.202;2023-06-10T02:22:34;91980.13;;;11.55;100.00
73941;BME280;62294;48.554;10.202;2023-06-10T02:25:01;91978.31;;;11.47;100.00
73941;BME280;62294;48.554;10.202;2023-06-10T02:27:27;91969.09;;;11.44;100.00
73941;BME280;62294;48.554;10.202;2023-06-10T02:29:54;91959.09;;;11.41;100.00
73941;BME280;62294;48.554;10.202;2023-06-10T02:32:20;91947.22;;;11.38;100.00
73941;BME280;62294;48.554;10.202;2023-06-10T02:34:47;91924.88;;;11.39;100.00
73941;BME280;62294;48.554;10.202;2023-06-10T02:37:15;91927.91;;;11.29;100.00
73941;BME280;62294;48.554;10.202;2023-06-10T02:39:42;91916.06;;;11.27;100.00
73941;BME280;62294;48.554;10.202;2023-06-10T02:42:09;91864.06;;;11.38;100.00
73941;BME280;62294;48.554;10.202;2023-06-10T02:44:38;91861.09;;;11.39;100.00
73941;BME280;62294;48.554;10.202;2023-06-10T02:47:04;91848.88;;;11.38;100.00
73941;BME280;62294;48.554;10.202;2023-06-10T02:49:31;91823.66;;;11.45;100.00
73941;BME280;62294;48.554;10.202;2023-06-10T02:51:58;91796.22;;;11.53;100.00
73941;BME280;62294;48.554;10.202;2023-06-10T02:54:25;91788.38;;;11.56;100.00
73941;BME280;62294;48.554;10.202;2023-06-10T02:56:52;91770.94;;;11.47;100.00
73941;BME280;62294;48.554;10.202;2023-06-10T02:59:19;91768.50;;;11.41;100.00
73941;BME280;62294;48.554;10.202;2023-06-10T03:01:46;91774.34;;;11.35;100.00
73941;BME280;62294;48.554;10.202;2023-06-10T03:04:12;91759.81;;;11.32;100.00
73941;BME280;62294;48.554;10.202;2023-06-10T03:06:41;91727.94;;;11.32;100.00
73941;BME280;62294;48.554;10.202;2023-06-10T03:09:08;91720.94;;;11.28;100.00
73941;BME280;62294;48.554;10.202;2023-06-10T03:11:35;91702.66;;;11.26;100.00
73941;BME280;62294;48.554;10.202;2023-06-10T03:14:02;91540.34;;;11.31;100.00
73941;BME280;62294;48.554;10.202;2023-06-10T03:16:28;91509.31;;;11.35;100.00
73941;BME280;62294;48.554;10.202;2023-06-10T03:18:57;91521.94;;;11.26;100.00
73941;BME280;62294;48.554;10.202;2023-06-10T03:21:23;91502.47;;;11.22;100.00
73941;BME280;62294;48.554;10.202;2023-06-10T03:23:50;91507.22;;;11.17;100.00
73941;BME280;62294;48.554;10.202;2023-06-10T03:26:17;91499.59;;;11.15;100.00
73941;BME280;62294;48.554;10.202;2023-06-10T03:28:43;91495.81;;;11.16;100.00
73941;BME280;62294;48.554;10.202;2023-06-10T03:31:09;91498.81;;;11.15;100.00
73941;BME280;62294;48.554;10.202;2023-06-10T03:33:36;91500.66;;;11.02;100.00
73941;BME280;62294;48.554;10.202;2023-06-10T03:36:03;91486.88;;;11.09;100.00
73941;BME280;62294;48.554;10.202;2023-06-10T03:38:30;91462.81;;;11.17;100.00
73941;BME280;62294;48.554;10.202;2023-06-10T03:40:57;91460.94;;;11.18;100.00
73941;BME280;62294;48.554;10.202;2023-06-10T03:43:24;91445.09;;;11.21;100.00
73941;BME280;62294;48.554;10.202;2023-06-10T03:45:50;91450.50;;;11.25;100.00
73941;BME280;62294;48.554;10.202;2023-06-10T03:48:17;91429.25;;;11.25;100.00
73941;BME280;62294;48.554;10.202;2023-06-10T03:50:44;91405.53;;;11.32;100.00
73941;BME280;62294;48.554;10.202;2023-06-10T03:53:10;91404.34;;;11.29;100.00
73941;BME280;62294;48.554;10.202;2023-06-10T03:55:37;91412.00;;;11.31;100.00
73941;BME280;62294;48.554;10.202;2023-06-10T03:58:03;91410.44;;;11.30;100.00
73941;BME280;62294;48.554;10.202;2023-06-10T04:00:30;91391.03;;;11.41;100.00
73941;BME280;62294;48.554;10.202;2023-06-10T04:02:57;91386.50;;;11.42;100.00
73941;BME280;62294;48.554;10.202;2023-06-10T04:05:24;91385.03;;;11.45;100.00
73941;BME280;62294;48.554;10.202;2023-06-10T04:07:51;91373.25;;;11.58;100.00
73941;BME280;62294;48.554;10.202;2023-06-10T04:10:17;91365.03;;;11.63;100.00
73941;BME280;62294;48.554;10.202;2023-06-10T04:12:44;91354.22;;;11.68;100.00
73941;BME280;62294;48.554;10.202;2023-06-10T04:15:10;91347.28;;;11.79;100.00
73941;BME280;62294;48.554;10.202;2023-06-10T04:17:38;91346.25;;;11.83;100.00
73941;BME280;62294;48.554;10.202;2023-06-10T04:20:05;91353.81;;;11.81;100.00
73941;BME280;62294;48.554;10.202;2023-06-10T04:22:33;91344.03;;;11.85;100.00
73941;BME280;62294;48.554;10.202;2023-06-10T04:25:00;91327.47;;;11.92;100.00
73941;BME280;62294;48.554;10.202;2023-06-10T04:27:27;91315.16;;;11.99;100.00
73941;BME280;62294;48.554;10.202;2023-06-10T04:29:53;91291.88;;;12.12;100.00
73941;BME280;62294;48.554;10.202;2023-06-10T04:32:20;91274.56;;;12.18;100.00
73941;BME280;62294;48.554;10.202;2023-06-10T04:34:47;91245.88;;;12.27;100.00
73941;BME280;62294;48.554;10.202;2023-06-10T04:37:13;91222.50;;;12.36;100.00
73941;BME280;62294;48.554;10.202;2023-06-10T04:39:40;91224.75;;;12.34;100.00
73941;BME280;62294;48.554;10.202;2023-06-10T04:42:07;91210.03;;;12.40;100.00
73941;BME280;62294;48.554;10.202;2023-06-10T04:44:34;91185.69;;;12.57;100.00
73941;BME280;62294;48.554;10.202;2023-06-10T04:47:01;91188.06;;;12.62;100.00
73941;BME280;62294;48.554;10.202;2023-06-10T04:49:28;91162.66;;;12.84;100.00
73941;BME280;62294;48.554;10.202;2023-06-10T04:51:56;91141.00;;;13.05;100.00
73941;BME280;62294;48.554;10.202;2023-06-10T04:54:22;91135.50;;;13.17;100.00
73941;BME280;62294;48.554;10.202;2023-06-10T04:56:49;91113.38;;;13.35;100.00
73941;BME280;62294;48.554;10.202;2023-06-10T04:59:16;91116.25;;;13.46;100.00
73941;BME280;62294;48.554;10.202;2023-06-10T05:01:42;91121.50;;;13.65;100.00
73941;BME280;62294;48.554;10.202;2023-06-10T05:04:09;91151.66;;;13.69;100.00
73941;BME280;62294;48.554;10.202;2023-06-10T05:06:36;91175.06;;;13.76;100.00
73941;BME280;62294;48.554;10.202;2023-06-10T05:09:03;91206.72;;;13.77;100.00
73941;BME280;62294;48.554;10.202;2023-06-10T05:11:29;91234.34;;;13.88;100.00
73941;BME280;62294;48.554;10.202;2023-06-10T05:13:56;91244.06;;;14.00;100.00
73941;BME280;62294;48.554;10.202;2023-06-10T05:16:22;91243.78;;;14.28;100.00
73941;BME280;62294;48.554;10.202;2023-06-10T05:18:49;91242.00;;;14.58;100.00
73941;BME280;62294;48.554;10.202;2023-06-10T05:21:17;91246.13;;;14.81;100.00
73941;BME280;62294;48.554;10.202;2023-06-10T05:23:43;91240.47;;;15.13;100.00
73941;BME280;62294;48.554;10.202;2023-06-10T05:26:10;91241.72;;;15.52;100.00
73941;BME280;62294;48.554;10.202;2023-06-10T05:28:37;91258.88;;;15.81;100.00
73941;BME280;62294;48.554;10.202;2023-06-10T05:31:03;91166.84;;;17.01;100.00
73941;BME280;62294;48.554;10.202;2023-06-10T05:33:30;91119.19;;;18.37;100.00
73941;BME280;62294;48.554;10.202;2023-06-10T05:35:57;91158.53;;;20.15;100.00
73941;BME280;62294;48.554;10.202;2023-06-10T05:38:23;91450.94;;;21.52;100.00
73941;BME280;62294;48.554;10.202;2023-06-10T05:40:50;91839.94;;;22.74;100.00
73941;BME280;62294;48.554;10.202;2023-06-10T05:43:17;92345.75;;;24.09;100.00
73941;BME280;62294;48.554;10.202;2023-06-10T05:45:43;93447.53;;;23.74;100.00
73941;BME280;62294;48.554;10.202;2023-06-10T05:48:10;93886.44;;;23.38;100.00
73941;BME280;62294;48.554;10.202;2023-06-10T05:50:37;94147.69;;;24.66;100.00
73941;BME280;62294;48.554;10.202;2023-06-10T05:53:05;94479.56;;;25.24;100.00
73941;BME280;62294;48.554;10.202;2023-06-10T05:55:33;94596.09;;;25.65;100.00
73941;BME280;62294;48.554;10.202;2023-06-10T05:58:01;94851.03;;;27.31;100.00
73941;BME280;62294;48.554;10.202;2023-06-10T06:00:27;95204.38;;;26.28;100.00
73941;BME280;62294;48.554;10.202;2023-06-10T06:02:54;95131.50;;;24.94;100.00
73941;BME280;62294;48.554;10.202;2023-06-10T06:05:21;95063.56;;;25.60;100.00
73941;BME280;62294;48.554;10.202;2023-06-10T06:07:47;95157.16;;;26.72;100.00
73941;BME280;62294;48.554;10.202;2023-06-10T06:10:14;95279.50;;;26.17;100.00
73941;BME280;62294;48.554;10.202;2023-06-10T06:12:40;95191.47;;;26.04;100.00
73941;BME280;62294;48.554;10.202;2023-06-10T06:15:07;95179.53;;;26.66;100.00
73941;BME280;62294;48.554;10.202;2023-06-10T06:17:35;95118.44;;;27.19;100.00
73941;BME280;62294;48.554;10.202;2023-06-10T06:20:03;95002.38;;;27.49;100.00
73941;BME280;62294;48.554;10.202;2023-06-10T06:22:29;95284.59;;;28.28;100.00
73941;BME280;62294;48.554;10.202;2023-06-10T06:24:56;94646.13;;;26.82;100.00
73941;BME280;62294;48.554;10.202;2023-06-10T06:27:22;94213.72;;;27.79;100.00
73941;BME280;62294;48.554;10.202;2023-06-10T06:29:49;93828.78;;;27.75;100.00
73941;BME280;62294;48.554;10.202;2023-06-10T06:32:17;93511.81;;;28.72;100.00
73941;BME280;62294;48.554;10.202;2023-06-10T06:34:44;93475.91;;;28.70;100.00
73941;BME280;62294;48.554;10.202;2023-06-10T06:37:10;93376.44;;;28.25;100.00
73941;BME280;62294;48.554;10.202;2023-06-10T06:39:36;93351.03;;;28.39;100.00
73941;BME280;62294;48.554;10.202;2023-06-10T06:42:04;93300.44;;;26.76;100.00
73941;BME280;62294;48.554;10.202;2023-06-10T06:44:31;93365.38;;;28.71;100.00
73941;BME280;62294;48.554;10.202;2023-06-10T06:46:58;93379.06;;;28.64;100.00
73941;BME280;62294;48.554;10.202;2023-06-10T06:49:25;93400.28;;;28.18;100.00
73941;BME280;62294;48.554;10.202;2023-06-10T06:51:51;93382.25;;;26.97;100.00
73941;BME280;62294;48.554;10.202;2023-06-10T06:54:17;93378.78;;;28.23;100.00
73941;BME280;62294;48.554;10.202;2023-06-10T06:56:45;93328.84;;;28.23;100.00
73941;BME280;62294;48.554;10.202;2023-06-10T06:59:11;93338.28;;;27.12;100.00
73941;BME280;62294;48.554;10.202;2023-06-10T07:01:40;93340.81;;;26.52;100.00
73941;BME280;62294;48.554;10.202;2023-06-10T07:04:07;93238.84;;;26.43;100.00
73941;BME280;62294;48.554;10.202;2023-06-10T07:06:33;93358.94;;;27.34;100.00
73941;BME280;62294;48.554;10.202;2023-06-10T07:09:04;93424.81;;;28.32;100.00
73941;BME280;62294;48.554;10.202;2023-06-10T07:11:31;93476.75;;;28.18;100.00
73941;BME280;62294;48.554;10.202;2023-06-10T07:13:58;93510.53;;;29.01;100.00
73941;BME280;62294;48.554;10.202;2023-06-10T07:16:24;93495.69;;;29.06;100.00
73941;BME280;62294;48.554;10.202;2023-06-10T07:18:53;93512.31;;;26.96;100.00
73941;BME280;62294;48.554;10.202;2023-06-10T07:21:19;93564.91;;;28.25;100.00
73941;BME280;62294;48.554;10.202;2023-06-10T07:23:46;93700.00;;;29.47;100.00
73941;BME280;62294;48.554;10.202;2023-06-10T07:26:13;93547.56;;;29.41;100.00
73941;BME280;62294;48.554;10.202;2023-06-10T07:28:40;93703.16;;;29.35;100.00
73941;BME280;62294;48.554;10.202;2023-06-10T07:31:08;93618.75;;;29.20;100.00
73941;BME280;62294;48.554;10.202;2023-06-10T07:33:35;93781.53;;;30.34;100.00
73941;BME280;62294;48.554;10.202;2023-06-10T07:36:03;93943.09;;;30.79;100.00
73941;BME280;62294;48.554;10.202;2023-06-10T07:38:29;93857.56;;;29.38;100.00
73941;BME280;62294;48.554;10.202;2023-06-10T07:40:56;93904.69;;;30.90;100.00
73941;BME280;62294;48.554;10.202;2023-06-10T07:43:23;93894.06;;;27.98;100.00
73941;BME280;62294;48.554;10.202;2023-06-10T07:45:50;93955.31;;;29.59;100.00
73941;BME280;62294;48.554;10.202;2023-06-10T07:48:17;94146.75;;;31.54;100.00
73941;BME280;62294;48.554;10.202;2023-06-10T07:50:44;94171.81;;;30.22;100.00
73941;BME280;62294;48.554;10.202;2023-06-10T07:53:10;94356.22;;;31.86;100.00
73941;BME280;62294;48.554;10.202;2023-06-10T07:55:37;94108.75;;;28.57;100.00
73941;BME280;62294;48.554;10.202;2023-06-10T07:58:03;94284.88;;;29.40;100.00
73941;BME280;62294;48.554;10.202;2023-06-10T08:00:29;94251.59;;;28.87;100.00
73941;BME280;62294;48.554;10.202;2023-06-10T08:02:56;94275.94;;;30.11;100.00
73941;BME280;62294;48.554;10.202;2023-06-10T08:05:23;94596.78;;;30.91;100.00
73941;BME280;62294;48.554;10.202;2023-06-10T08:07:49;94574.19;;;29.73;100.00
73941;BME280;62294;48.554;10.202;2023-06-10T08:10:16;94595.66;;;29.34;100.00
73941;BME280;62294;48.554;10.202;2023-06-10T08:12:43;94798.47;;;31.18;100.00
73941;BME280;62294;48.554;10.202;2023-06-10T08:15:09;94966.25;;;31.13;100.00
73941;BME280;62294;48.554;10.202;2023-06-10T08:17:37;94961.75;;;30.64;100.00
73941;BME280;62294;48.554;10.202;2023-06-10T08:20:06;95028.94;;;30.02;100.00
73941;BME280;62294;48.554;10.202;2023-06-10T08:22:32;95026.41;;;30.39;100.00
73941;BME280;62294;48.554;10.202;2023-06-10T08:25:00;94825.16;;;29.13;100.00
73941;BME280;62294;48.554;10.202;2023-06-10T08:27:26;94889.75;;;30.41;100.00
73941;BME280;62294;48.554;10.202;2023-06-10T08:29:53;95053.50;;;30.22;100.00
73941;BME280;62294;48.554;10.202;2023-06-10T08:32:20;95224.81;;;30.50;100.00
73941;BME280;62294;48.554;10.202;2023-06-10T08:34:47;95286.47;;;31.80;100.00
73941;BME280;62294;48.554;10.202;2023-06-10T08:37:13;95331.97;;;31.29;100.00
73941;BME280;62294;48.554;10.202;2023-06-10T08:39:40;95164.78;;;28.92;100.00
73941;BME280;62294;48.554;10.202;2023-06-10T08:42:33;95031.03;;;28.68;100.00
73941;BME280;62294;48.554;10.202;2023-06-10T08:45:03;95152.81;;;29.73;100.00
73941;BME280;62294;48.554;10.202;2023-06-10T08:47:33;95109.31;;;28.76;100.00
73941;BME280;62294;48.554;10.202;2023-06-10T08:50:05;95241.41;;;30.19;100.00
73941;BME280;62294;48.554;10.202;2023-06-10T08:52:35;95298.63;;;30.01;100.00
73941;BME280;62294;48.554;10.202;2023-06-10T08:58:04;95253.44;;;28.01;100.00
73941;BME280;62294;48.554;10.202;2023-06-10T09:00:32;94715.97;;;27.75;100.00
73941;BME280;62294;48.554;10.202;2023-06-10T09:02:59;95033.34;;;28.35;100.00
73941;BME280;62294;48.554;10.202;2023-06-10T09:05:33;95180.44;;;29.45;100.00
73941;BME280;62294;48.554;10.202;2023-06-10T09:08:00;95187.06;;;29.10;100.00
73941;BME280;62294;48.554;10.202;2023-06-10T09:10:27;95274.41;;;29.84;100.00
73941;BME280;62294;48.554;10.202;2023-06-10T09:12:54;95267.31;;;28.67;100.00
73941;BME280;62294;48.554;10.202;2023-06-10T09:15:20;95128.31;;;26.84;100.00
73941;BME280;62294;48.554;10.202;2023-06-10T09:17:47;95002.88;;;27.39;100.00
73941;BME280;62294;48.554;10.202;2023-06-10T09:20:14;94819.50;;;25.88;100.00
73941;BME280;62294;48.554;10.202;2023-06-10T09:22:42;94855.50;;;28.05;100.00
73941;BME280;62294;48.554;10.202;2023-06-10T09:25:11;95234.13;;;30.07;100.00
73941;BME280;62294;48.554;10.202;2023-06-10T09:30:23;95312.03;;;29.53;100.00
73941;BME280;62294;48.554;10.202;2023-06-10T09:32:53;95466.84;;;30.47;100.00
73941;BME280;62294;48.554;10.202;2023-06-10T09:35:20;95415.59;;;29.50;100.00
73941;BME280;62294;48.554;10.202;2023-06-10T09:37:51;95504.22;;;29.74;100.00
73941;BME280;62294;48.554;10.202;2023-06-10T09:40:17;95527.22;;;30.51;100.00
73941;BME280;62294;48.554;10.202;2023-06-10T09:42:44;95541.56;;;30.79;100.00
73941;BME280;62294;48.554;10.202;2023-06-10T09:45:11;95538.84;;;30.44;100.00
73941;BME280;62294;48.554;10.202;2023-06-10T09:47:37;95534.38;;;29.89;100.00
73941;BME280;62294;48.554;10.202;2023-06-10T09:50:05;95535.53;;;30.04;100.00
73941;BME280;62294;48.554;10.202;2023-06-10T09:52:36;95564.88;;;31.04;100.00
73941;BME280;62294;48.554;10.202;2023-06-10T09:55:03;95571.06;;;31.59;100.00
73941;BME280;62294;48.554;10.202;2023-06-10T09:57:31;95592.16;;;30.31;100.00
73941;BME280;62294;48.554;10.202;2023-06-10T10:00:05;95593.44;;;30.84;100.00
73941;BME280;62294;48.554;10.202;2023-06-10T10:02:32;95578.94;;;29.86;100.00
73941;BME280;62294;48.554;10.202;2023-06-10T10:05:02;95595.47;;;30.21;100.00
73941;BME280;62294;48.554;10.202;2023-06-10T10:07:30;95579.53;;;30.11;100.00
73941;BME280;62294;48.554;10.202;2023-06-10T10:09:57;95582.28;;;29.95;100.00
73941;BME280;62294;48.554;10.202;2023-06-10T10:12:24;95573.81;;;31.20;100.00
73941;BME280;62294;48.554;10.202;2023-06-10T10:14:52;95538.88;;;28.83;100.00
73941;BME280;62294;48.554;10.202;2023-06-10T10:17:22;95568.00;;;29.74;100.00
73941;BME280;62294;48.554;10.202;2023-06-10T10:19:54;95575.63;;;30.94;100.00
73941;BME280;62294;48.554;10.202;2023-06-10T10:22:26;95579.81;;;32.55;100.00
73941;BME280;62294;48.554;10.202;2023-06-10T10:24:56;95584.59;;;32.58;100.00
73941;BME280;62294;48.554;10.202;2023-06-10T10:27:44;95574.47;;;32.91;100.00
73941;BME280;62294;48.554;10.202;2023-06-10T10:30:17;95580.22;;;32.31;100.00
73941;BME280;62294;48.554;10.202;2023-06-10T10:33:00;95580.72;;;32.13;100.00
73941;BME280;62294;48.554;10.202;2023-06-10T10:35:36;95587.84;;;32.93;100.00
73941;BME280;62294;48.554;10.202;2023-06-10T10:38:03;95589.09;;;31.98;100.00
73941;BME280;62294;48.554;10.202;2023-06-10T10:40:31;95583.13;;;30.97;100.00
73941;BME280;62294;48.554;10.202;2023-06-10T10:42:59;95577.41;;;30.51;100.00
73941;BME280;62294;48.554;10.202;2023-06-10T10:45:30;95561.88;;;29.77;100.00
73941;BME280;62294;48.554;10.202;2023-06-10T10:47:56;95546.13;;;29.90;100.00
73941;BME280;62294;48.554;10.202;2023-06-10T10:50:28;95530.09;;;28.13;100.00
73941;BME280;62294;48.554;10.202;2023-06-10T10:53:01;95469.22;;;27.20;100.00
73941;BME280;62294;48.554;10.202;2023-06-10T10:55:29;95415.69;;;27.03;100.00
73941;BME280;62294;48.554;10.202;2023-06-10T10:58:03;95361.66;;;26.85;100.00
73941;BME280;62294;48.554;10.202;2023-06-10T11:00:37;95429.91;;;28.57;100.00
73941;BME280;62294;48.554;10.202;2023-06-10T11:03:05;95521.50;;;30.75;100.00
73941;BME280;62294;48.554;10.202;2023-06-10T11:05:44;95491.31;;;28.60;100.00
73941;BME280;62294;48.554;10.202;2023-06-10T11:08:15;95529.47;;;30.99;100.00
73941;BME280;62294;48.554;10.202;2023-06-10T11:11:18;95551.31;;;32.17;100.00
73941;BME280;62294;48.554;10.202;2023-06-10T11:16:27;95523.72;;;28.22;100.00
73941;BME280;62294;48.554;10.202;2023-06-10T11:18:55;95498.81;;;27.99;100.00
73941;BME280;62294;48.554;10.202;2023-06-10T11:21:25;95485.22;;;27.54;100.00
73941;BME280;62294;48.554;10.202;2023-06-10T11:23:57;95472.16;;;27.03;100.00
73941;BME280;62294;48.554;10.202;2023-06-10T11:33:54;95539.63;;;30.45;100.00
73941;BME280;62294;48.554;10.202;2023-06-10T11:36:22;95553.13;;;31.42;100.00
73941;BME280;62294;48.554;10.202;2023-06-10T11:38:50;95565.94;;;31.38;100.00
73941;BME280;62294;48.554;10.202;2023-06-10T11:41:19;95569.72;;;30.26;100.00
73941;BME280;62294;48.554;10.202;2023-06-10T11:43:47;95539.09;;;28.14;100.00
73941;BME280;62294;48.554;10.202;2023-06-10T11:46:14;95507.47;;;28.13;100.00
73941;BME280;62294;48.554;10.202;2023-06-10T11:48:58;95485.94;;;27.75;100.00
73941;BME280;62294;48.554;10.202;2023-06-10T11:51:26;95503.44;;;28.59;100.00
73941;BME280;62294;48.554;10.202;2023-06-10T11:53:54;95534.94;;;29.52;100.00
73941;BME280;62294;48.554;10.202;2023-06-10T11:56:22;95519.41;;;28.21;100.00
73941;BME280;62294;48.554;10.202;2023-06-10T11:59:06;95519.59;;;29.63;100.00
73941;BME280;62294;48.554;10.202;2023-06-10T12:01:37;95548.59;;;28.80;100.00
73941;BME280;62294;48.554;10.202;2023-06-10T12:04:09;95531.56;;;27.87;100.00
73941;BME280;62294;48.554;10.202;2023-06-10T12:06:52;95529.88;;;29.10;100.00
73941;BME280;62294;48.554;10.202;2023-06-10T12:09:22;95534.19;;;30.64;100.00
73941;BME280;62294;48.554;10.202;2023-06-10T12:11:59;95550.75;;;30.86;100.00
73941;BME280;62294;48.554;10.202;2023-06-10T12:20:08;95563.72;;;32.31;100.00
73941;BME280;62294;48.554;10.202;2023-06-10T12:22:43;95556.31;;;31.28;100.00
73941;BME280;62294;48.554;10.202;2023-06-10T12:25:11;95560.88;;;30.48;100.00
73941;BME280;62294;48.554;10.202;2023-06-10T12:27:40;95561.28;;;29.56;100.00
73941;BME280;62294;48.554;10.202;2023-06-10T12:30:19;95545.50;;;29.22;100.00
73941;BME280;62294;48.554;10.202;2023-06-10T12:32:48;95541.91;;;29.33;100.00
73941;BME280;62294;48.554;10.202;2023-06-10T12:35:19;95555.44;;;29.58;100.00
73941;BME280;62294;48.554;10.202;2023-06-10T12:38:14;95550.31;;;29.56;100.00
73941;BME280;62294;48.554;10.202;2023-06-10T12:40:41;95545.88;;;29.36;100.00
73941;BME280;62294;48.554;10.202;2023-06-10T12:43:07;95543.22;;;29.39;100.00
73941;BME280;62294;48.554;10.202;2023-06-10T12:45:36;95532.44;;;29.03;100.00
73941;BME280;62294;48.554;10.202;2023-06-10T12:50:41;95558.22;;;30.20;100.00
73941;BME280;62294;48.554;10.202;2023-06-10T12:53:09;95544.09;;;29.43;100.00
73941;BME280;62294;48.554;10.202;2023-06-10T12:55:36;95542.09;;;29.13;100.00
73941;BME280;62294;48.554;10.202;2023-06-10T12:58:03;95538.88;;;30.13;100.00
73941;BME280;62294;48.554;10.202;2023-06-10T13:00:30;95555.44;;;30.51;100.00
73941;BME280;62294;48.554;10.202;2023-06-10T13:03:00;95528.97;;;28.15;100.00
73941;BME280;62294;48.554;10.202;2023-06-10T13:05:32;95529.50;;;28.32;100.00
73941;BME280;62294;48.554;10.202;2023-06-10T13:07:59;95513.50;;;28.06;100.00
73941;BME280;62294;48.554;10.202;2023-06-10T13:10:25;95521.69;;;29.10;100.00
73941;BME280;62294;48.554;10.202;2023-06-10T13:12:53;95526.63;;;28.77;100.00
73941;BME280;62294;48.554;10.202;2023-06-10T13:15:23;95535.16;;;29.03;100.00